Time;durP1;ratioP1;P1;durP2;ratioP2;P2;SDS_P1;SDS_P2;PMS_P1;PMS_P2;Temp;Humidity;BMP_temperature;BMP_pressure;BME280_temperature;BME280_humidity;BME280_pressure;Samples;Min_cycle;Max_cycle;Signal;HPM_P1;HPM_P2
2021/12/04 00:00:04;;;;;;;1.60;1.40;;;4.60;98.20;;;;;;5024706;28;20459;-75
2021/12/04 00:02:32;;;;;;;1.63;1.40;;;4.60;98.20;;;;;;5004494;28;20495;-75
2021/12/04 00:05:01;;;;;;;1.60;1.30;;;4.60;98.20;;;;;;5020608;28;20569;-75
2021/12/04 00:07:30;;;;;;;1.63;1.40;;;4.60;98.20;;;;;;5022389;28;20488;-75
2021/12/04 00:10:01;;;;;;;1.60;1.37;;;4.60;98.20;;;;;;5028523;28;21032;-75
2021/12/04 00:12:30;;;;;;;1.67;1.30;;;4.60;98.20;;;;;;5028139;28;20490;-78
2021/12/04 00:14:57;;;;;;;1.63;1.40;;;4.70;98.20;;;;;;5027259;28;20629;-76
2021/12/04 00:17:26;;;;;;;1.63;1.40;;;4.70;98.20;;;;;;5026109;28;20998;-78
2021/12/04 00:19:55;;;;;;;1.60;1.30;;;4.70;98.20;;;;;;5026479;28;20935;-77
2021/12/04 00:22:22;;;;;;;1.70;1.50;;;4.80;98.20;;;;;;5025928;28;20486;-77
2021/12/04 00:24:50;;;;;;;1.60;1.30;;;4.80;98.20;;;;;;5021981;28;20470;-76
2021/12/04 00:27:17;;;;;;;1.60;1.30;;;4.90;98.20;;;;;;5021259;28;20477;-80
2021/12/04 00:29:44;;;;;;;1.63;1.40;;;4.90;98.20;;;;;;5029767;28;20469;-76
2021/12/04 00:32:13;;;;;;;1.60;1.40;;;4.90;98.20;;;;;;5023738;28;21013;-74
2021/12/04 00:34:45;;;;;;;1.63;1.40;;;4.90;98.20;;;;;;5026534;28;21081;-74
2021/12/04 00:37:36;;;;;;;1.67;1.50;;;4.90;98.20;;;;;;5018825;28;20587;-75
2021/12/04 00:51:01;;;;;;;1.67;1.40;;;5.00;98.20;;;;;;5010102;28;20482;-75
2021/12/04 00:53:28;;;;;;;1.67;1.40;;;5.00;98.20;;;;;;5034336;28;20872;-74
2021/12/04 00:55:55;;;;;;;1.67;1.40;;;5.10;98.20;;;;;;5012762;28;20472;-75
2021/12/04 00:58:22;;;;;;;1.60;1.40;;;5.10;98.20;;;;;;5036125;28;20526;-75
2021/12/04 01:00:49;;;;;;;1.60;1.30;;;5.10;98.20;;;;;;5012286;28;20466;-75
2021/12/04 01:03:18;;;;;;;1.63;1.40;;;5.10;98.20;;;;;;5031951;28;20983;-74
2021/12/04 01:05:46;;;;;;;1.63;1.40;;;5.10;98.20;;;;;;5021330;28;20467;-75
2021/12/04 01:08:14;;;;;;;1.60;1.30;;;5.10;98.20;;;;;;5023639;28;20483;-75
2021/12/04 01:10:41;;;;;;;1.60;1.40;;;5.10;98.20;;;;;;5022278;28;20466;-75
2021/12/04 01:13:11;;;;;;;1.60;1.30;;;5.10;98.20;;;;;;5026582;28;20801;-75
2021/12/04 01:15:39;;;;;;;1.67;1.40;;;5.10;98.20;;;;;;5020876;28;20546;-75
2021/12/04 01:18:06;;;;;;;1.63;1.40;;;5.00;98.20;;;;;;5021445;28;20487;-75
2021/12/04 01:20:33;;;;;;;1.60;1.40;;;5.00;98.20;;;;;;5025405;28;20471;-75
2021/12/04 01:23:00;;;;;;;1.63;1.40;;;5.00;98.20;;;;;;5009371;28;20541;-75
2021/12/04 01:25:28;;;;;;;1.60;1.40;;;5.00;98.20;;;;;;5015226;28;20508;-75
2021/12/04 01:27:55;;;;;;;1.60;1.30;;;4.90;98.20;;;;;;5020968;28;20508;-75
2021/12/04 01:30:23;;;;;;;1.60;1.30;;;4.90;98.20;;;;;;5020477;28;20922;-75
2021/12/04 01:32:50;;;;;;;1.60;1.37;;;4.90;98.20;;;;;;5014801;28;20486;-75
2021/12/04 01:35:17;;;;;;;1.60;1.40;;;4.90;98.20;;;;;;5020786;28;20491;-75
2021/12/04 01:37:44;;;;;;;1.60;1.40;;;4.80;98.20;;;;;;5025963;28;21029;-75
2021/12/04 01:40:12;;;;;;;1.60;1.30;;;4.80;98.20;;;;;;5017345;28;20851;-75
2021/12/04 01:42:40;;;;;;;1.67;1.40;;;4.80;98.20;;;;;;5025742;28;20490;-75
2021/12/04 01:45:11;;;;;;;1.60;1.30;;;4.90;98.20;;;;;;5022399;28;20479;-75
2021/12/04 01:47:38;;;;;;;1.70;1.50;;;4.90;98.20;;;;;;5018574;28;20482;-75
2021/12/04 01:50:07;;;;;;;1.67;1.40;;;5.00;98.20;;;;;;5018470;28;20463;-75
2021/12/04 01:52:34;;;;;;;1.60;1.30;;;5.10;98.20;;;;;;5023446;28;20482;-75
2021/12/04 01:55:01;;;;;;;1.67;1.40;;;5.10;98.20;;;;;;5020925;28;20943;-75
2021/12/04 01:57:28;;;;;;;1.70;1.40;;;5.10;98.20;;;;;;5026655;28;20489;-75
2021/12/04 01:59:56;;;;;;;1.70;1.47;;;5.10;98.20;;;;;;5027935;28;20486;-74
2021/12/04 02:02:23;;;;;;;1.60;1.30;;;5.20;98.20;;;;;;5020480;28;20486;-74
2021/12/04 02:04:51;;;;;;;1.60;1.40;;;5.20;98.20;;;;;;5022847;28;20456;-73
2021/12/04 02:07:20;;;;;;;1.67;1.40;;;5.20;98.20;;;;;;5026852;28;20474;-73
2021/12/04 02:09:47;;;;;;;1.60;1.40;;;5.20;98.20;;;;;;5020516;28;20466;-73
2021/12/04 02:12:14;;;;;;;1.63;1.43;;;5.20;98.20;;;;;;5027221;28;20488;-73
2021/12/04 02:14:42;;;;;;;1.60;1.40;;;5.20;98.20;;;;;;5028167;28;20570;-73
2021/12/04 02:17:11;;;;;;;1.60;1.40;;;5.20;98.20;;;;;;5026801;28;20509;-73
2021/12/04 02:19:38;;;;;;;1.67;1.43;;;5.20;98.20;;;;;;5029763;28;20463;-73
2021/12/04 02:22:06;;;;;;;1.60;1.30;;;5.10;98.20;;;;;;5022090;28;20858;-73
2021/12/04 02:24:33;;;;;;;1.63;1.30;;;5.10;98.20;;;;;;5028186;28;20465;-73
2021/12/04 02:27:00;;;;;;;1.60;1.30;;;5.10;98.20;;;;;;5015090;28;20514;-73
2021/12/04 02:29:27;;;;;;;1.60;1.40;;;5.10;98.20;;;;;;5028363;28;20483;-73
2021/12/04 02:31:56;;;;;;;1.60;1.40;;;5.10;98.20;;;;;;5014304;28;20486;-74
2021/12/04 02:34:38;;;;;;;1.60;1.40;;;5.00;98.20;;;;;;5029902;28;20487;-74
2021/12/04 02:37:08;;;;;;;1.70;1.40;;;5.00;98.20;;;;;;5017519;28;21040;-73
2021/12/04 02:39:37;;;;;;;1.77;1.60;;;5.00;98.20;;;;;;5027133;28;20466;-73
2021/12/04 02:42:08;;;;;;;1.70;1.40;;;4.90;98.20;;;;;;5024536;28;20486;-76
2021/12/04 02:44:40;;;;;;;1.63;1.40;;;4.90;98.20;;;;;;5030084;28;20457;-76
2021/12/04 02:47:08;;;;;;;1.63;1.40;;;4.90;98.20;;;;;;5023683;28;21009;-75
2021/12/04 02:49:35;;;;;;;1.63;1.40;;;4.90;98.20;;;;;;5029548;28;20467;-77
2021/12/04 02:52:03;;;;;;;1.60;1.30;;;4.90;98.20;;;;;;5028025;28;20486;-77
2021/12/04 02:54:35;;;;;;;1.70;1.40;;;4.90;98.20;;;;;;5026439;28;20483;-80
2021/12/04 02:57:03;;;;;;;1.70;1.50;;;4.80;98.20;;;;;;5027175;28;20505;-76
2021/12/04 02:59:35;;;;;;;1.60;1.30;;;4.80;98.20;;;;;;5034034;28;20883;-76
2021/12/04 03:02:02;;;;;;;1.67;1.30;;;4.80;98.20;;;;;;5027978;28;20486;-77
2021/12/04 03:04:32;;;;;;;1.60;1.40;;;4.70;98.20;;;;;;5034171;28;20943;-78
2021/12/04 03:07:01;;;;;;;1.60;1.40;;;4.70;98.20;;;;;;5025631;28;20483;-76
2021/12/04 03:09:34;;;;;;;1.63;1.30;;;4.60;98.20;;;;;;5036490;28;20544;-76
2021/12/04 03:12:02;;;;;;;1.67;1.40;;;4.60;98.20;;;;;;5028835;28;20477;-76
2021/12/04 03:14:31;;;;;;;1.60;1.40;;;4.60;98.20;;;;;;5037258;28;21007;-76
2021/12/04 03:16:58;;;;;;;1.60;1.40;;;4.60;98.20;;;;;;5029992;28;20497;-75
2021/12/04 03:19:26;;;;;;;1.67;1.40;;;4.60;98.20;;;;;;5036308;28;20908;-75
2021/12/04 03:21:53;;;;;;;1.60;1.40;;;4.60;98.20;;;;;;5025739;28;20551;-77
2021/12/04 03:24:22;;;;;;;1.70;1.50;;;4.50;98.20;;;;;;5039874;28;20463;-78
2021/12/04 03:26:51;;;;;;;1.63;1.40;;;4.50;98.20;;;;;;5014810;28;20483;-75
2021/12/04 03:29:22;;;;;;;1.63;1.30;;;4.50;98.20;;;;;;5033845;28;20463;-75
2021/12/04 03:32:11;;;;;;;1.60;1.40;;;4.50;98.20;;;;;;5012683;28;20487;-75
2021/12/04 03:40:50;;;;;;;1.70;1.40;;;4.40;98.20;;;;;;5014414;28;21025;-77
2021/12/04 03:43:20;;;;;;;1.60;1.30;;;4.40;98.20;;;;;;5013127;28;20477;-74
2021/12/04 03:45:54;;;;;;;1.67;1.40;;;4.40;98.20;;;;;;5020586;28;20467;-77
2021/12/04 03:48:50;;;;;;;1.60;1.40;;;4.40;98.20;;;;;;5049050;28;20455;-76
2021/12/04 03:51:20;;;;;;;1.63;1.40;;;4.30;98.20;;;;;;5026070;28;20906;-79
2021/12/04 03:53:48;;;;;;;1.70;1.43;;;4.30;98.20;;;;;;5043298;28;20477;-79
2021/12/04 03:56:20;;;;;;;1.60;1.30;;;4.30;98.20;;;;;;5023343;28;20775;-76
2021/12/04 03:58:49;;;;;;;1.60;1.30;;;4.30;98.20;;;;;;5045036;28;20463;-77
2021/12/04 04:01:17;;;;;;;1.60;1.40;;;4.30;98.20;;;;;;5022353;28;20487;-76
2021/12/04 04:03:48;;;;;;;1.60;1.30;;;4.30;98.20;;;;;;5043418;28;20451;-76
2021/12/04 04:06:16;;;;;;;1.60;1.30;;;4.30;98.20;;;;;;5021843;28;20764;-76
2021/12/04 04:08:43;;;;;;;1.70;1.47;;;4.30;98.20;;;;;;5044851;28;20471;-76
2021/12/04 04:11:10;;;;;;;1.70;1.40;;;4.30;98.20;;;;;;5027310;28;20608;-76
2021/12/04 04:13:41;;;;;;;1.67;1.40;;;4.30;98.20;;;;;;5042232;28;20491;-77
2021/12/04 04:16:10;;;;;;;1.63;1.40;;;4.30;98.20;;;;;;5023399;28;20534;-75
2021/12/04 04:18:37;;;;;;;1.60;1.37;;;4.30;98.20;;;;;;5045162;28;20546;-76
2021/12/04 04:21:05;;;;;;;1.60;1.30;;;4.30;98.20;;;;;;5023112;28;20459;-77
2021/12/04 04:23:32;;;;;;;1.80;1.70;;;4.40;98.20;;;;;;5042369;28;20467;-81
2021/12/04 04:26:00;;;;;;;1.70;1.40;;;4.40;98.20;;;;;;5023780;28;20846;-77
2021/12/04 04:28:29;;;;;;;1.60;1.40;;;4.40;98.20;;;;;;5048181;28;20486;-76
2021/12/04 04:30:57;;;;;;;1.67;1.40;;;4.40;98.20;;;;;;5018110;28;20991;-75
2021/12/04 04:33:25;;;;;;;1.60;1.40;;;4.40;98.20;;;;;;5037191;28;20494;-75
2021/12/04 04:36:05;;;;;;;2.13;1.93;;;4.40;98.20;;;;;;5012423;28;20488;-76
2021/12/04 04:38:40;;;;;;;1.70;1.40;;;4.40;98.20;;;;;;5039558;28;20459;-75
2021/12/04 04:58:25;;;;;;;1.70;1.40;;;4.40;98.20;;;;;;5028439;28;20477;-75
2021/12/04 05:12:01;;;;;;;1.63;1.40;;;4.40;98.20;;;;;;5027446;28;20497;-75
2021/12/04 05:14:29;;;;;;;1.60;1.30;;;4.40;98.20;;;;;;5032263;28;20495;-76
2021/12/04 05:17:03;;;;;;;1.70;1.60;;;4.40;98.20;;;;;;5027361;28;20478;-78
2021/12/04 05:19:38;;;;;;;1.67;1.40;;;4.40;98.20;;;;;;5036021;28;20897;-76
2021/12/04 05:22:09;;;;;;;1.63;1.40;;;4.40;98.20;;;;;;5028288;28;20497;-77
2021/12/04 05:24:40;;;;;;;1.60;1.40;;;4.40;98.20;;;;;;5034319;28;20535;-78
2021/12/04 05:27:08;;;;;;;1.70;1.53;;;4.40;98.20;;;;;;5029696;28;20505;-76
2021/12/04 05:29:36;;;;;;;1.67;1.40;;;4.30;98.20;;;;;;5037174;28;20456;-75
2021/12/04 05:32:05;;;;;;;1.60;1.40;;;4.30;98.20;;;;;;5028251;28;21025;-78
2021/12/04 05:34:35;;;;;;;1.60;1.40;;;4.30;98.20;;;;;;5033454;28;20676;-79
2021/12/04 05:37:05;;;;;;;1.63;1.40;;;4.30;98.20;;;;;;5023495;28;20490;-77
2021/12/04 05:39:33;;;;;;;1.67;1.50;;;4.30;98.20;;;;;;5032910;28;20538;-78
2021/12/04 05:42:02;;;;;;;1.67;1.40;;;4.30;98.20;;;;;;5026973;28;20475;-76
2021/12/04 05:44:31;;;;;;;1.60;1.40;;;4.30;98.20;;;;;;5029260;28;20465;-77
2021/12/04 05:47:01;;;;;;;1.67;1.40;;;4.30;98.20;;;;;;5023354;28;20653;-77
2021/12/04 05:49:33;;;;;;;1.60;1.40;;;4.30;98.20;;;;;;5029876;28;20452;-76
2021/12/04 05:52:13;;;;;;;1.63;1.40;;;4.40;98.20;;;;;;5028544;28;20926;-76
2021/12/04 05:54:56;;;;;;;1.60;1.40;;;4.40;98.20;;;;;;5030467;28;20859;-77
2021/12/04 05:57:24;;;;;;;1.63;1.50;;;4.30;98.20;;;;;;5034022;28;20583;-75
2021/12/04 05:59:51;;;;;;;1.60;1.30;;;4.30;98.20;;;;;;5028635;28;20459;-77
2021/12/04 06:02:19;;;;;;;1.60;1.40;;;4.30;98.20;;;;;;5019777;28;20871;-76
2021/12/04 06:04:46;;;;;;;1.60;1.43;;;4.30;98.20;;;;;;5028177;28;20915;-78
2021/12/04 06:07:13;;;;;;;1.67;1.40;;;4.40;98.20;;;;;;5014927;28;20925;-75
2021/12/04 06:09:41;;;;;;;1.63;1.40;;;4.40;98.20;;;;;;5032572;28;20846;-76
2021/12/04 06:12:11;;;;;;;1.60;1.30;;;4.40;98.20;;;;;;5020590;28;20487;-77
2021/12/04 06:14:38;;;;;;;1.60;1.40;;;4.40;98.20;;;;;;5029530;28;20834;-79
2021/12/04 06:17:05;;;;;;;1.60;1.40;;;4.40;98.20;;;;;;5018627;28;20559;-75
2021/12/04 06:25:02;;;;;;;1.60;1.40;;;4.40;98.20;;;;;;5021443;28;20436;-76
2021/12/04 06:27:29;;;;;;;1.60;1.40;;;4.40;98.20;;;;;;5014301;28;20487;-78
2021/12/04 06:29:56;;;;;;;1.67;1.40;;;4.40;98.20;;;;;;5018493;28;20460;-79
2021/12/04 06:35:40;;;;;;;1.67;1.30;;;4.40;98.20;;;;;;4993006;28;21019;-76
2021/12/04 06:38:21;;;;;;;1.63;1.30;;;4.40;98.20;;;;;;5021883;28;20483;-76
2021/12/04 06:41:00;;;;;;;1.60;1.40;;;4.40;98.20;;;;;;5031617;28;20835;-78
2021/12/04 06:43:59;;;;;;;1.60;1.30;;;4.40;98.20;;;;;;5040794;28;20462;-76
2021/12/04 06:49:27;;;;;;;1.70;1.47;;;4.40;98.20;;;;;;5028657;28;20563;-74
2021/12/04 06:51:57;;;;;;;1.63;1.40;;;4.40;98.20;;;;;;5093851;22;20556;-76
2021/12/04 06:54:27;;;;;;;1.67;1.40;;;4.40;98.20;;;;;;5037135;28;20468;-75
2021/12/04 06:57:10;;;;;;;1.60;1.40;;;4.40;98.20;;;;;;5034660;28;20484;-75
2021/12/04 06:59:54;;;;;;;1.67;1.40;;;4.40;98.20;;;;;;5032541;28;20491;-75
2021/12/04 07:02:34;;;;;;;1.70;1.50;;;4.40;98.20;;;;;;5023787;28;20478;-75
2021/12/04 07:05:29;;;;;;;1.70;1.50;;;4.40;98.20;;;;;;5029128;28;20817;-76
2021/12/04 07:07:59;;;;;;;1.63;1.40;;;4.40;98.20;;;;;;4994443;28;20475;-75
2021/12/04 07:10:29;;;;;;;1.67;1.50;;;4.40;98.20;;;;;;5025736;28;20554;-75
2021/12/04 07:13:14;;;;;;;1.60;1.40;;;4.40;98.20;;;;;;5004310;28;20558;-75
2021/12/04 07:16:01;;;;;;;1.63;1.40;;;4.40;98.20;;;;;;5024990;28;20860;-75
2021/12/04 07:18:34;;;;;;;1.70;1.50;;;4.50;98.20;;;;;;5017170;28;20479;-75
2021/12/04 07:21:02;;;;;;;1.60;1.40;;;4.40;98.20;;;;;;5021485;28;20464;-77
2021/12/04 07:23:37;;;;;;;1.60;1.40;;;4.40;98.20;;;;;;5041626;28;20520;-77
2021/12/04 07:26:35;;;;;;;1.60;1.40;;;4.40;98.20;;;;;;5017812;28;20463;-76
2021/12/04 07:32:26;;;;;;;1.70;1.40;;;4.40;98.20;;;;;;5176489;22;21110;-74
2021/12/04 07:34:54;;;;;;;1.60;1.40;;;4.40;98.20;;;;;;4978987;28;20469;-74
2021/12/04 07:37:23;;;;;;;1.60;1.30;;;4.40;98.20;;;;;;4969008;28;20485;-74
2021/12/04 07:39:51;;;;;;;1.60;1.40;;;4.40;98.20;;;;;;4982479;28;20958;-74
2021/12/04 07:42:18;;;;;;;1.70;1.40;;;4.50;98.20;;;;;;4971599;28;20496;-74
2021/12/04 07:44:48;;;;;;;14.43;12.93;;;4.40;98.20;;;;;;4970994;28;20497;-74
2021/12/04 07:47:29;;;;;;;1.60;1.33;;;4.40;98.20;;;;;;4970393;28;20491;-75
2021/12/04 07:49:57;;;;;;;1.67;1.40;;;4.50;98.20;;;;;;4973606;28;20970;-74
2021/12/04 07:52:24;;;;;;;1.60;1.40;;;4.50;98.20;;;;;;4974318;28;20497;-74
2021/12/04 07:54:51;;;;;;;1.60;1.50;;;4.50;98.20;;;;;;4966534;28;20572;-74
2021/12/04 07:57:20;;;;;;;1.67;1.50;;;4.50;98.20;;;;;;4964015;28;20918;-74
2021/12/04 07:59:48;;;;;;;1.63;1.40;;;4.50;98.20;;;;;;4963605;28;20469;-74
2021/12/04 08:02:16;;;;;;;1.60;1.40;;;4.50;98.20;;;;;;4978888;28;20528;-74
2021/12/04 08:04:43;;;;;;;1.67;1.40;;;4.50;98.20;;;;;;4976711;28;21059;-75
2021/12/04 08:07:10;;;;;;;1.60;1.40;;;4.50;98.20;;;;;;4978552;28;20555;-74
2021/12/04 08:09:37;;;;;;;1.87;1.67;;;4.50;98.20;;;;;;4974686;28;20470;-74
2021/12/04 08:12:05;;;;;;;1.60;1.30;;;4.50;98.20;;;;;;4975706;28;20558;-74
2021/12/04 08:14:33;;;;;;;1.70;1.40;;;4.50;98.20;;;;;;4993069;28;20472;-74
2021/12/04 08:17:04;;;;;;;1.63;1.40;;;4.50;98.20;;;;;;4988626;28;20479;-75
2021/12/04 08:19:32;;;;;;;1.70;1.50;;;4.50;98.20;;;;;;4993709;28;20485;-74
2021/12/04 08:22:00;;;;;;;1.63;1.40;;;4.60;98.20;;;;;;4967488;28;20516;-74
2021/12/04 08:24:27;;;;;;;1.70;1.50;;;4.60;98.20;;;;;;4970655;28;20670;-74
2021/12/04 08:26:55;;;;;;;1.60;1.40;;;4.60;98.20;;;;;;4960612;28;20584;-74
2021/12/04 08:29:22;;;;;;;1.63;1.40;;;4.60;98.20;;;;;;4971595;28;20466;-73
2021/12/04 08:31:51;;;;;;;1.67;1.40;;;4.60;98.20;;;;;;4961645;28;20603;-72
2021/12/04 08:34:20;;;;;;;1.70;1.40;;;4.60;98.20;;;;;;4970630;28;20482;-74
2021/12/04 08:36:51;;;;;;;1.63;1.40;;;4.70;98.20;;;;;;4960414;28;21187;-74
2021/12/04 08:39:19;;;;;;;1.70;1.40;;;4.70;98.20;;;;;;4972133;28;20470;-74
2021/12/04 08:41:47;;;;;;;1.60;1.30;;;4.70;98.20;;;;;;4966922;28;20498;-74
2021/12/04 08:44:15;;;;;;;1.63;1.40;;;4.70;98.20;;;;;;4989368;28;20472;-74
2021/12/04 08:46:43;;;;;;;1.70;1.40;;;4.70;98.20;;;;;;4976693;28;20487;-74
2021/12/04 08:49:11;;;;;;;1.70;1.37;;;4.70;98.20;;;;;;4992460;28;20469;-74
2021/12/04 08:51:41;;;;;;;1.60;1.40;;;4.70;98.20;;;;;;4979352;28;20492;-74
2021/12/04 08:54:10;;;;;;;1.70;1.40;;;4.70;98.20;;;;;;4990126;28;20512;-75
2021/12/04 08:56:39;;;;;;;1.70;1.40;;;4.70;98.20;;;;;;4977328;28;20490;-74
2021/12/04 08:59:08;;;;;;;1.67;1.37;;;4.70;98.20;;;;;;4991285;28;20957;-73
2021/12/04 09:01:38;;;;;;;1.63;1.40;;;4.70;98.20;;;;;;4977010;28;20522;-76
2021/12/04 09:04:10;;;;;;;1.70;1.50;;;4.70;98.20;;;;;;4989991;28;20465;-73
2021/12/04 09:06:39;;;;;;;1.70;1.50;;;4.70;98.20;;;;;;4983040;28;20992;-73
2021/12/04 09:09:11;;;;;;;1.63;1.40;;;4.70;98.20;;;;;;5001688;28;20465;-73
2021/12/04 09:11:43;;;;;;;2.57;2.37;;;4.70;98.20;;;;;;4978351;28;20925;-74
2021/12/04 09:14:13;;;;;;;1.60;1.30;;;4.80;98.20;;;;;;4990378;28;20471;-74
2021/12/04 09:16:41;;;;;;;1.63;1.40;;;4.80;98.20;;;;;;4978384;28;20491;-75
2021/12/04 09:19:09;;;;;;;1.67;1.30;;;4.80;98.20;;;;;;4990856;28;20465;-75
2021/12/04 09:21:39;;;;;;;1.60;1.30;;;4.90;98.20;;;;;;4979855;28;20515;-75
2021/12/04 09:24:12;;;;;;;1.60;1.30;;;5.00;98.20;;;;;;4991254;28;20475;-75
2021/12/04 09:26:46;;;;;;;1.60;1.40;;;5.00;98.20;;;;;;4980203;28;20754;-75
2021/12/04 09:29:34;;;;;;;1.70;1.40;;;5.10;98.20;;;;;;4989875;28;20492;-75
2021/12/04 09:32:27;;;;;;;1.60;1.30;;;5.10;98.20;;;;;;4979152;28;20571;-75
2021/12/04 09:35:18;;;;;;;1.60;1.30;;;5.10;98.20;;;;;;4984731;28;20726;-75
2021/12/04 10:00:05;;;;;;;2.23;2.03;;;5.30;98.20;;;;;;4987818;28;20522;-75
2021/12/04 10:02:43;;;;;;;1.60;1.40;;;5.40;98.20;;;;;;4998641;28;20613;-75
2021/12/04 10:05:38;;;;;;;1.70;1.50;;;5.40;98.20;;;;;;4986735;28;20492;-75
2021/12/04 10:11:39;;;;;;;1.70;1.40;;;5.40;98.20;;;;;;4974725;28;20690;-75
2021/12/04 10:17:13;;;;;;;1.70;1.30;;;5.40;98.20;;;;;;4931731;28;20487;-75
2021/12/04 10:20:00;;;;;;;1.60;1.30;;;5.40;98.20;;;;;;4991437;28;20982;-75
2021/12/04 10:22:34;;;;;;;1.67;1.40;;;5.40;98.20;;;;;;4997113;28;20487;-75
2021/12/04 10:33:30;;;;;;;1.63;1.30;;;5.50;98.20;;;;;;4973813;28;20618;-74
2021/12/04 10:36:03;;;;;;;1.60;1.30;;;5.60;98.20;;;;;;4969920;28;21055;-73
2021/12/04 10:38:37;;;;;;;1.60;1.30;;;5.70;98.20;;;;;;4997388;28;20476;-76
2021/12/04 10:41:05;;;;;;;1.70;1.40;;;5.70;98.20;;;;;;4970824;28;20465;-74
2021/12/04 10:43:35;;;;;;;1.67;1.40;;;5.80;98.20;;;;;;4994576;28;20461;-77
2021/12/04 10:46:12;;;;;;;1.60;1.30;;;5.70;98.20;;;;;;4972111;28;20931;-75
2021/12/04 10:48:46;;;;;;;2.63;2.43;;;5.70;98.20;;;;;;4993706;28;20468;-75
2021/12/04 10:51:26;;;;;;;1.60;1.30;;;5.70;98.20;;;;;;4979004;28;20795;-74
2021/12/04 10:53:57;;;;;;;1.60;1.30;;;5.70;98.20;;;;;;5002764;28;20488;-74
2021/12/04 10:56:36;;;;;;;1.63;1.30;;;5.70;98.20;;;;;;4976211;28;20495;-76
2021/12/04 10:59:18;;;;;;;3.60;2.23;;;5.70;98.20;;;;;;4980875;28;20454;-75
2021/12/04 11:01:55;;;;;;;1.60;1.30;;;5.80;98.20;;;;;;4957406;28;20488;-74
2021/12/04 11:04:31;;;;;;;1.60;1.30;;;5.80;98.20;;;;;;4969085;28;20633;-74
2021/12/04 11:41:01;;;;;;;1.60;1.30;;;6.10;98.20;;;;;;4980837;28;20487;-75
2021/12/04 11:43:47;;;;;;;1.63;1.30;;;6.10;98.20;;;;;;4975735;28;20499;-75
2021/12/04 11:46:20;;;;;;;1.70;1.40;;;6.10;98.20;;;;;;4979944;28;20492;-77
2021/12/04 11:48:48;;;;;;;1.67;1.30;;;6.10;98.20;;;;;;4994913;28;20467;-76
2021/12/04 11:51:22;;;;;;;1.67;1.30;;;6.10;98.20;;;;;;4981958;28;20552;-75
2021/12/04 11:53:54;;;;;;;1.60;1.30;;;6.10;98.20;;;;;;5007583;28;20484;-75
2021/12/04 11:56:24;;;;;;;1.67;1.37;;;6.10;98.20;;;;;;4981552;28;20520;-75
2021/12/04 11:58:58;;;;;;;1.60;1.30;;;6.20;98.20;;;;;;4989176;28;20489;-76
2021/12/04 12:01:31;;;;;;;1.60;1.30;;;6.10;98.20;;;;;;4961480;28;20499;-75
2021/12/04 12:04:01;;;;;;;1.63;1.40;;;6.20;98.20;;;;;;4973747;28;20962;-75
2021/12/04 12:06:39;;;;;;;1.63;1.30;;;6.10;98.20;;;;;;4977400;28;21018;-76
2021/12/04 12:09:12;;;;;;;1.60;1.40;;;6.10;98.20;;;;;;5005318;28;20465;-76
2021/12/04 12:11:50;;;;;;;1.60;1.30;;;6.10;98.20;;;;;;4981774;28;20520;-75
2021/12/04 12:14:21;;;;;;;1.70;1.40;;;6.10;98.20;;;;;;4980455;28;20473;-76
2021/12/04 12:16:52;;;;;;;1.63;1.30;;;6.10;98.20;;;;;;4979588;28;20478;-76
2021/12/04 12:19:27;;;;;;;1.70;1.40;;;6.10;98.20;;;;;;4996925;28;20727;-77
2021/12/04 12:22:00;;;;;;;1.60;1.30;;;6.10;98.20;;;;;;4992030;28;20937;-76
2021/12/04 12:27:23;;;;;;;1.60;1.30;;;6.20;98.20;;;;;;4989904;28;20471;-74
2021/12/04 12:32:50;;;;;;;1.60;1.30;;;6.20;98.20;;;;;;5002348;28;20880;-75
2021/12/04 12:38:10;;;;;;;1.60;1.30;;;6.20;98.20;;;;;;5006335;28;20827;-76
2021/12/04 12:40:38;;;;;;;1.60;1.30;;;6.20;98.20;;;;;;4986012;28;20468;-76
2021/12/04 12:43:16;;;;;;;1.60;1.30;;;6.20;98.20;;;;;;5005033;28;21003;-76
2021/12/04 12:45:56;;;;;;;1.60;1.30;;;6.20;98.20;;;;;;4983186;28;20484;-76
2021/12/04 12:48:24;;;;;;;1.60;1.30;;;6.20;98.20;;;;;;4968634;28;21178;-76
2021/12/04 12:50:52;;;;;;;1.60;1.30;;;6.20;98.20;;;;;;4957664;28;20468;-75
2021/12/04 12:53:28;;;;;;;1.63;1.37;;;6.20;98.20;;;;;;5011575;28;20486;-75
2021/12/04 12:56:06;;;;;;;1.60;1.20;;;6.20;98.20;;;;;;4973180;28;20530;-75
2021/12/04 12:58:41;;;;;;;1.60;1.30;;;6.30;98.20;;;;;;5006759;28;20476;-75
2021/12/04 13:12:24;;;;;;;1.80;1.60;;;6.30;98.20;;;;;;4997203;28;20510;-73
2021/12/04 13:14:54;;;;;;;1.60;1.30;;;6.30;98.20;;;;;;4985643;28;20586;-73
2021/12/04 13:17:23;;;;;;;1.60;1.30;;;6.30;98.20;;;;;;4994553;28;20966;-74
2021/12/04 13:19:53;;;;;;;1.60;1.30;;;6.30;98.20;;;;;;4988125;28;20523;-75
2021/12/04 13:22:23;;;;;;;2.13;1.93;;;6.20;98.20;;;;;;4994189;28;20502;-77
2021/12/04 13:24:54;;;;;;;2.87;2.57;;;6.30;98.20;;;;;;4986930;28;20951;-74
2021/12/04 13:29:52;;;;;;;1.60;1.30;;;6.30;98.20;;;;;;4982962;28;21093;-73
2021/12/04 13:32:29;;;;;;;1.70;1.60;;;6.30;98.20;;;;;;4981902;28;20499;-74
2021/12/04 13:35:02;;;;;;;1.60;1.40;;;6.30;98.20;;;;;;4967507;28;20465;-77
2021/12/04 13:37:31;;;;;;;1.63;1.30;;;6.30;98.20;;;;;;4993857;28;21037;-76
2021/12/04 13:40:05;;;;;;;1.60;1.30;;;6.30;98.20;;;;;;4987346;28;20539;-75
2021/12/04 13:42:33;;;;;;;1.60;1.30;;;6.40;98.20;;;;;;5001475;28;20515;-75
2021/12/04 13:45:02;;;;;;;1.67;1.30;;;6.40;98.20;;;;;;4988485;28;20481;-74
2021/12/04 13:47:29;;;;;;;1.60;1.30;;;6.40;98.20;;;;;;5000206;28;20563;-75
2021/12/04 13:50:00;;;;;;;1.60;1.30;;;6.30;98.20;;;;;;4986532;28;20476;-74
2021/12/04 13:52:31;;;;;;;1.60;1.30;;;6.30;98.20;;;;;;4996921;28;20664;-74
2021/12/04 13:55:05;;;;;;;1.60;1.30;;;6.30;98.20;;;;;;4983426;28;20927;-75
2021/12/04 13:57:33;;;;;;;1.70;1.50;;;6.20;98.20;;;;;;4997858;28;20482;-74
2021/12/04 14:00:01;;;;;;;1.60;1.30;;;6.20;98.20;;;;;;4987312;28;20497;-75
2021/12/04 14:02:31;;;;;;;1.63;1.37;;;6.20;98.20;;;;;;4995670;28;20526;-75
2021/12/04 14:05:00;;;;;;;1.60;1.30;;;6.20;98.20;;;;;;4984783;28;20914;-74
2021/12/04 14:07:28;;;;;;;1.60;1.30;;;6.20;98.20;;;;;;4997930;28;20475;-74
2021/12/04 14:09:56;;;;;;;1.60;1.30;;;6.20;98.20;;;;;;4986196;28;20882;-75
2021/12/04 14:12:30;;;;;;;1.60;1.30;;;6.20;98.20;;;;;;4996739;28;20653;-74
2021/12/04 14:14:57;;;;;;;1.60;1.30;;;6.20;98.20;;;;;;4983951;28;20465;-74
2021/12/04 14:17:24;;;;;;;1.60;1.30;;;6.30;98.20;;;;;;4994974;28;20483;-75
2021/12/04 14:19:52;;;;;;;1.60;1.30;;;6.30;98.20;;;;;;4985511;28;20465;-75
2021/12/04 14:22:21;;;;;;;1.63;1.33;;;6.30;98.20;;;;;;4984554;28;20634;-76
2021/12/04 14:24:50;;;;;;;1.60;1.30;;;6.30;98.20;;;;;;4982176;28;20491;-75
2021/12/04 14:27:20;;;;;;;1.63;1.37;;;6.30;98.20;;;;;;4983682;28;20518;-74
2021/12/04 14:29:58;;;;;;;1.60;1.30;;;6.20;98.20;;;;;;4980543;28;20465;-75
2021/12/04 14:32:28;;;;;;;1.60;1.30;;;6.20;98.20;;;;;;4981953;28;20518;-75
2021/12/04 14:34:57;;;;;;;1.63;1.30;;;6.20;98.20;;;;;;4980016;28;21164;-75
2021/12/04 14:37:25;;;;;;;1.60;1.30;;;6.20;98.20;;;;;;4983440;28;20484;-74
2021/12/04 14:39:53;;;;;;;1.60;1.37;;;6.20;98.20;;;;;;4985096;28;20901;-75
2021/12/04 14:42:22;;;;;;;1.60;1.30;;;6.20;98.20;;;;;;4984022;28;20570;-76
2021/12/04 14:44:55;;;;;;;2.33;2.13;;;6.20;98.20;;;;;;4984802;28;20465;-75
2021/12/04 14:47:28;;;;;;;1.60;1.50;;;6.20;98.20;;;;;;4982811;28;20599;-75
2021/12/04 14:50:00;;;;;;;1.60;1.30;;;6.20;98.20;;;;;;4984254;28;20504;-76
2021/12/04 14:52:30;;;;;;;1.60;1.30;;;6.20;98.20;;;;;;4997615;28;20885;-75
2021/12/04 14:54:58;;;;;;;1.60;1.30;;;6.20;98.20;;;;;;4984549;28;20464;-76
2021/12/04 14:57:28;;;;;;;1.60;1.30;;;6.20;98.20;;;;;;4996881;28;20565;-76
2021/12/04 15:00:08;;;;;;;1.60;1.30;;;6.20;98.20;;;;;;4984293;28;20557;-74
2021/12/04 15:02:36;;;;;;;1.60;1.40;;;6.20;98.20;;;;;;4968369;28;20492;-75
2021/12/04 15:05:05;;;;;;;1.60;1.40;;;6.20;98.20;;;;;;4960934;28;21155;-76
2021/12/04 15:07:34;;;;;;;1.70;1.40;;;6.10;98.20;;;;;;4966773;28;20898;-76
2021/12/04 15:10:05;;;;;;;1.67;1.30;;;6.10;98.20;;;;;;4964966;28;20469;-75
2021/12/04 15:12:36;;;;;;;1.60;1.30;;;6.10;98.20;;;;;;4968928;28;20496;-77
2021/12/04 15:15:08;;;;;;;1.60;1.33;;;6.10;98.20;;;;;;4967215;28;20470;-75
2021/12/04 15:17:39;;;;;;;1.60;1.30;;;6.10;98.20;;;;;;5001612;28;21066;-76
2021/12/04 15:20:10;;;;;;;1.60;1.30;;;6.00;98.20;;;;;;4991553;28;20480;-77
2021/12/04 15:22:43;;;;;;;1.60;1.40;;;6.00;98.20;;;;;;4993609;28;21094;-77
2021/12/04 15:25:13;;;;;;;1.63;1.33;;;6.00;98.20;;;;;;4967819;28;20465;-76
2021/12/04 15:27:40;;;;;;;1.60;1.30;;;6.00;98.20;;;;;;4997429;28;20479;-76
2021/12/04 15:30:14;;;;;;;1.60;1.40;;;6.00;98.20;;;;;;4985971;28;20477;-76
2021/12/04 15:32:42;;;;;;;1.60;1.30;;;6.00;98.20;;;;;;4972966;28;20516;-76
2021/12/04 15:35:21;;;;;;;1.60;1.30;;;6.00;98.20;;;;;;4967195;28;20496;-77
2021/12/04 15:37:52;;;;;;;1.60;1.30;;;6.00;98.20;;;;;;4977374;28;20523;-78
2021/12/04 15:40:29;;;;;;;1.63;1.30;;;5.90;98.20;;;;;;4974517;28;20470;-77
2021/12/04 15:43:05;;;;;;;1.63;1.40;;;5.90;98.20;;;;;;5009157;28;20509;-77
2021/12/04 15:45:41;;;;;;;1.63;1.33;;;5.90;98.20;;;;;;5001571;28;21034;-75
2021/12/04 15:48:34;;;;;;;1.60;1.30;;;5.90;98.20;;;;;;4986025;28;20481;-76
2021/12/04 15:53:58;;;;;;;1.60;1.30;;;5.80;98.20;;;;;;4983802;28;20527;-77